createdAt,value
2018-03-15T00:00:30.413Z,1006.52
2018-03-15T00:01:30.421Z,1006.49
2018-03-15T00:02:30.443Z,1006.53
2018-03-15T00:03:30.454Z,1006.54
2018-03-15T00:04:30.460Z,1006.53
2018-03-15T00:05:30.472Z,1006.50
2018-03-15T00:06:30.498Z,1006.52
2018-03-15T00:07:30.498Z,1006.52
2018-03-15T00:08:30.552Z,1006.48
2018-03-15T00:09:30.518Z,1006.53
2018-03-15T00:10:30.538Z,1006.51
2018-03-15T00:11:30.548Z,1006.51
2018-03-15T00:12:30.556Z,1006.49
2018-03-15T00:13:30.578Z,1006.50
2018-03-15T00:14:30.592Z,1006.44
2018-03-15T00:15:30.603Z,1006.46
2018-03-15T00:16:30.616Z,1006.41
2018-03-15T00:17:30.625Z,1006.42
2018-03-15T00:18:30.633Z,1006.40
2018-03-15T00:19:30.647Z,1006.34
2018-03-15T00:20:30.666Z,1006.41
2018-03-15T00:21:30.673Z,1006.35
2018-03-15T00:22:30.687Z,1006.32
2018-03-15T00:23:30.696Z,1006.32
2018-03-15T00:24:30.717Z,1006.40
2018-03-15T00:25:30.735Z,1006.33
2018-03-15T00:26:30.733Z,1006.33
2018-03-15T00:27:30.754Z,1006.32
2018-03-15T00:28:30.767Z,1006.30
2018-03-15T00:29:30.774Z,1006.30
2018-03-15T00:30:30.783Z,1006.26
2018-03-15T00:31:30.800Z,1006.26
2018-03-15T00:32:30.808Z,1006.24
2018-03-15T00:33:30.821Z,1006.23
2018-03-15T00:34:30.840Z,1006.19
2018-03-15T00:35:30.857Z,1006.15
2018-03-15T00:36:30.857Z,1006.25
2018-03-15T00:37:30.870Z,1006.24
2018-03-15T00:38:30.899Z,1006.20
2018-03-15T00:39:30.896Z,1006.21
2018-03-15T00:40:30.909Z,1006.25
2018-03-15T00:41:30.930Z,1006.18
2018-03-15T00:42:30.940Z,1006.21
2018-03-15T00:43:30.944Z,1006.17
2018-03-15T00:44:30.953Z,1006.16
2018-03-15T00:45:30.974Z,1006.16
2018-03-15T00:46:30.983Z,1006.13
2018-03-15T00:47:30.993Z,1006.14
2018-03-15T00:48:31.002Z,1006.09
2018-03-15T00:49:31.022Z,1006.13
2018-03-15T00:50:31.078Z,1006.13
2018-03-15T00:51:31.040Z,1006.08
2018-03-15T00:52:31.065Z,1006.05
2018-03-15T00:53:31.103Z,1006.06
2018-03-15T00:54:31.079Z,1006.07
2018-03-15T00:55:31.090Z,1006.04
2018-03-15T00:56:31.112Z,1006.04
2018-03-15T00:57:31.130Z,1006.06
2018-03-15T00:58:31.132Z,1006.00
2018-03-15T00:59:31.149Z,1006.02
2018-03-15T01:00:31.162Z,1005.97
2018-03-15T01:01:31.171Z,1005.97
2018-03-15T01:02:31.178Z,1005.99
2018-03-15T01:03:31.197Z,1005.90
2018-03-15T01:04:31.205Z,1005.97
2018-03-15T01:05:31.215Z,1005.96
2018-03-15T01:06:31.225Z,1005.96
2018-03-15T01:07:31.246Z,1005.95
2018-03-15T01:08:31.258Z,1005.96
2018-03-15T01:09:31.265Z,1005.95
2018-03-15T01:10:31.273Z,1005.95
2018-03-15T01:11:31.292Z,1005.98
2018-03-15T01:12:31.306Z,1005.95
2018-03-15T01:13:31.314Z,1005.95
2018-03-15T01:14:31.331Z,1005.95
2018-03-15T01:15:31.342Z,1005.97
2018-03-15T01:16:31.350Z,1005.98
2018-03-15T01:17:31.359Z,1005.97
2018-03-15T01:18:31.382Z,1005.97
2018-03-15T01:19:31.403Z,1005.99
2018-03-15T01:20:31.402Z,1005.95
2018-03-15T01:21:31.407Z,1006.00
2018-03-15T01:22:31.428Z,1005.95
2018-03-15T01:23:31.440Z,1006.00
2018-03-15T01:24:31.445Z,1005.99
2018-03-15T01:25:31.455Z,1005.96
2018-03-15T01:26:31.476Z,1005.91
2018-03-15T01:27:31.487Z,1005.89
2018-03-15T01:28:31.498Z,1005.86
2018-03-15T01:29:31.504Z,1005.85
2018-03-15T01:30:31.528Z,1005.86
2018-03-15T01:31:31.532Z,1005.84
2018-03-15T01:32:31.555Z,1005.84
2018-03-15T01:33:31.551Z,1005.79
2018-03-15T01:34:31.572Z,1005.77
2018-03-15T01:35:31.585Z,1005.82
2018-03-15T01:36:31.594Z,1005.81
2018-03-15T01:37:31.599Z,1005.79
2018-03-15T01:38:31.620Z,1005.74
2018-03-15T01:39:31.629Z,1005.78
2018-03-15T01:40:31.648Z,1005.75
2018-03-15T01:41:31.651Z,1005.77
2018-03-15T01:42:31.668Z,1005.74
2018-03-15T01:43:31.676Z,1005.73
2018-03-15T01:44:31.686Z,1005.69
2018-03-15T01:45:31.699Z,1005.69
2018-03-15T01:46:31.716Z,1005.68
2018-03-15T01:47:31.729Z,1005.65
2018-03-15T01:48:31.738Z,1005.65
2018-03-15T01:49:31.747Z,1005.66
2018-03-15T01:50:31.771Z,1005.68
2018-03-15T01:51:31.774Z,1005.66
2018-03-15T01:52:31.787Z,1005.71
2018-03-15T01:53:31.803Z,1005.69
2018-03-15T01:54:31.812Z,1005.71
2018-03-15T01:55:31.822Z,1005.66
2018-03-15T01:56:31.831Z,1005.64
2018-03-15T01:57:31.855Z,1005.67
2018-03-15T01:58:31.863Z,1005.62
2018-03-15T01:59:31.869Z,1005.61
2018-03-15T02:00:31.879Z,1005.58
2018-03-15T02:01:31.901Z,1005.55
2018-03-15T02:02:31.912Z,1005.57
2018-03-15T02:03:31.929Z,1005.51
2018-03-15T02:04:31.928Z,1005.50
2018-03-15T02:05:31.948Z,1005.52
2018-03-15T02:06:31.957Z,1005.51
2018-03-15T02:07:31.967Z,1005.53
2018-03-15T02:08:31.992Z,1005.49
2018-03-15T02:09:31.997Z,1005.54
2018-03-15T02:10:32.008Z,1005.55
2018-03-15T02:11:32.014Z,1005.50
2018-03-15T02:12:32.039Z,1005.51
2018-03-15T02:13:32.045Z,1005.50
2018-03-15T02:14:32.054Z,1005.51
2018-03-15T02:15:32.062Z,1005.48
2018-03-15T02:16:32.088Z,1005.50
2018-03-15T02:17:32.092Z,1005.50
2018-03-15T02:18:32.101Z,1005.49
2018-03-15T02:19:32.115Z,1005.49
2018-03-15T02:20:32.130Z,1005.53
2018-03-15T02:21:32.156Z,1005.53
2018-03-15T02:22:32.153Z,1005.50
2018-03-15T02:23:32.173Z,1005.50
2018-03-15T02:24:32.184Z,1005.50
2018-03-15T02:25:32.193Z,1005.47
2018-03-15T02:26:32.210Z,1005.49
2018-03-15T02:27:32.221Z,1005.46
2018-03-15T02:28:32.227Z,1005.38
2018-03-15T02:29:32.237Z,1005.45
2018-03-15T02:30:32.249Z,1005.44
2018-03-15T02:31:32.270Z,1005.40
2018-03-15T02:32:32.279Z,1005.40
2018-03-15T02:33:32.287Z,1005.40
2018-03-15T02:34:32.300Z,1005.40
2018-03-15T02:35:32.318Z,1005.44
2018-03-15T02:36:32.325Z,1005.43
2018-03-15T02:37:32.332Z,1005.42
2018-03-15T02:38:32.347Z,1005.41
2018-03-15T02:39:32.363Z,1005.38
2018-03-15T02:40:32.375Z,1005.37
2018-03-15T02:41:32.381Z,1005.41
2018-03-15T02:42:32.392Z,1005.41
2018-03-15T02:43:32.411Z,1005.41
2018-03-15T02:44:32.419Z,1005.37
2018-03-15T02:45:32.432Z,1005.38
2018-03-15T02:46:32.450Z,1005.36
2018-03-15T02:47:32.460Z,1005.38
2018-03-15T02:48:32.468Z,1005.37
2018-03-15T02:49:32.479Z,1005.38
2018-03-15T02:50:32.498Z,1005.42
2018-03-15T02:51:32.508Z,1005.37
2018-03-15T02:52:32.520Z,1005.40
2018-03-15T02:53:32.527Z,1005.39
2018-03-15T02:54:32.555Z,1005.37
2018-03-15T02:55:32.562Z,1005.38
2018-03-15T02:56:32.567Z,1005.39
2018-03-15T02:57:32.836Z,1005.35
2018-03-15T02:58:32.594Z,1005.36
2018-03-15T02:59:32.602Z,1005.40
2018-03-15T03:00:32.614Z,1005.41
2018-03-15T03:01:32.623Z,1005.39
2018-03-15T03:02:32.647Z,1005.37
2018-03-15T03:03:32.655Z,1005.39
2018-03-15T03:04:32.660Z,1005.40
2018-03-15T03:05:32.689Z,1005.36
2018-03-15T03:06:32.690Z,1005.39
2018-03-15T03:07:32.699Z,1005.38
2018-03-15T03:08:32.709Z,1005.34
2018-03-15T03:09:32.730Z,1005.39
2018-03-15T03:10:32.742Z,1005.37
2018-03-15T03:11:32.753Z,1005.36
2018-03-15T03:12:32.760Z,1005.34
2018-03-15T03:13:32.778Z,1005.38
2018-03-15T03:14:32.787Z,1005.43
2018-03-15T03:15:32.799Z,1005.37
2018-03-15T03:16:32.808Z,1005.42
2018-03-15T03:17:32.830Z,1005.42
2018-03-15T03:18:32.839Z,1005.41
2018-03-15T03:19:32.845Z,1005.45
2018-03-15T03:20:32.856Z,1005.47
2018-03-15T03:21:32.872Z,1005.42
2018-03-15T03:22:32.883Z,1005.41
2018-03-15T03:23:32.892Z,1005.45
2018-03-15T03:24:32.913Z,1005.44
2018-03-15T03:25:32.926Z,1005.43
2018-03-15T03:26:32.935Z,1005.42
2018-03-15T03:27:32.948Z,1005.44
2018-03-15T03:28:32.964Z,1005.41
2018-03-15T03:29:32.973Z,1005.41
2018-03-15T03:30:32.980Z,1005.41
2018-03-15T03:31:32.993Z,1005.40
2018-03-15T03:32:33.013Z,1005.40
2018-03-15T03:33:33.021Z,1005.40
2018-03-15T03:34:33.027Z,1005.40
2018-03-15T03:35:33.039Z,1005.38
2018-03-15T03:36:33.057Z,1005.32
2018-03-15T03:37:33.065Z,1005.35
2018-03-15T03:38:33.075Z,1005.33
2018-03-15T03:39:33.083Z,1005.31
2018-03-15T03:40:33.106Z,1005.33
2018-03-15T03:41:33.115Z,1005.31
2018-03-15T03:42:33.123Z,1005.33
2018-03-15T03:43:33.132Z,1005.33
2018-03-15T03:44:33.153Z,1005.37
2018-03-15T03:45:33.161Z,1005.32
2018-03-15T03:46:33.176Z,1005.32
2018-03-15T03:47:33.180Z,1005.33
2018-03-15T03:48:33.204Z,1005.33
2018-03-15T03:49:33.215Z,1005.29
2018-03-15T03:50:33.218Z,1005.26
2018-03-15T03:51:33.241Z,1005.26
2018-03-15T03:52:33.253Z,1005.26
2018-03-15T03:53:33.257Z,1005.27
2018-03-15T03:54:33.270Z,1005.29
2018-03-15T03:55:33.279Z,1005.24
2018-03-15T03:56:33.301Z,1005.30
2018-03-15T03:57:33.306Z,1005.26
2018-03-15T03:58:33.314Z,1005.31
2018-03-15T03:59:33.340Z,1005.26
2018-03-15T04:00:33.346Z,1005.29
2018-03-15T04:01:33.356Z,1005.26
2018-03-15T04:02:33.364Z,1005.27
2018-03-15T04:03:33.384Z,1005.29
2018-03-15T04:04:33.397Z,1005.29
2018-03-15T04:05:33.406Z,1005.30
2018-03-15T04:06:33.411Z,1005.27
2018-03-15T04:07:33.441Z,1005.30
2018-03-15T04:08:33.445Z,1005.28
2018-03-15T04:09:33.454Z,1005.27
2018-03-15T04:10:33.463Z,1005.29
2018-03-15T04:11:33.484Z,1005.26
2018-03-15T04:12:33.493Z,1005.25
2018-03-15T04:13:33.498Z,1005.31
2018-03-15T04:14:33.507Z,1005.24
2018-03-15T04:15:33.528Z,1005.24
2018-03-15T04:16:33.541Z,1005.20
2018-03-15T04:17:33.545Z,1005.22
2018-03-15T04:18:33.555Z,1005.25
2018-03-15T04:19:33.577Z,1005.30
2018-03-15T04:20:33.585Z,1005.22
2018-03-15T04:21:33.594Z,1005.20
2018-03-15T04:22:33.604Z,1005.21
2018-03-15T04:23:33.628Z,1005.19
2018-03-15T04:24:33.634Z,1005.17
2018-03-15T04:25:33.659Z,1005.21
2018-03-15T04:26:33.672Z,1005.18
2018-03-15T04:27:33.677Z,1005.19
2018-03-15T04:28:33.681Z,1005.20
2018-03-15T04:29:33.691Z,1005.15
2018-03-15T04:30:33.712Z,1005.13
2018-03-15T04:31:33.731Z,1005.15
2018-03-15T04:32:33.730Z,1005.19
2018-03-15T04:33:33.739Z,1005.17
2018-03-15T04:34:33.752Z,1005.16
2018-03-15T04:35:33.773Z,1005.17
2018-03-15T04:36:33.781Z,1005.18
2018-03-15T04:37:33.791Z,1005.16
2018-03-15T04:38:33.811Z,1005.10
2018-03-15T04:39:33.820Z,1005.08
2018-03-15T04:40:33.827Z,1005.12
2018-03-15T04:41:33.838Z,1005.14
2018-03-15T04:42:33.860Z,1005.07
2018-03-15T04:43:33.868Z,1005.05
2018-03-15T04:44:33.874Z,1005.06
2018-03-15T04:45:33.883Z,1005.05
2018-03-15T04:46:33.905Z,1005.09
2018-03-15T04:47:33.913Z,1005.08
2018-03-15T04:48:33.923Z,1005.10
2018-03-15T04:49:33.935Z,1005.06
2018-03-15T04:50:33.959Z,1005.08
2018-03-15T04:51:33.961Z,1005.11
2018-03-15T04:52:33.971Z,1005.11
2018-03-15T04:53:33.979Z,1005.12
2018-03-15T04:54:33.999Z,1005.10
2018-03-15T04:55:34.012Z,1005.14
2018-03-15T04:56:34.023Z,1005.11
2018-03-15T04:57:34.026Z,1005.09
2018-03-15T04:58:34.092Z,1005.14
2018-03-15T04:59:34.060Z,1005.16
2018-03-15T05:00:34.069Z,1005.14
2018-03-15T05:01:34.074Z,1005.12
2018-03-15T05:02:34.085Z,1005.15
2018-03-15T05:03:34.104Z,1005.17
2018-03-15T05:04:34.114Z,1005.15
2018-03-15T05:05:34.123Z,1005.13
2018-03-15T05:06:34.143Z,1005.15
2018-03-15T05:07:34.154Z,1005.15
2018-03-15T05:08:34.163Z,1005.11
2018-03-15T05:09:34.172Z,1005.13
2018-03-15T05:10:34.243Z,1005.14
2018-03-15T05:11:34.202Z,1005.11
2018-03-15T05:12:34.214Z,1005.16
2018-03-15T05:13:34.218Z,1005.15
2018-03-15T05:14:34.240Z,1005.13
2018-03-15T05:15:34.250Z,1005.17
2018-03-15T05:16:34.262Z,1005.17
2018-03-15T05:17:34.271Z,1005.20
2018-03-15T05:18:34.281Z,1005.20
2018-03-15T05:19:34.312Z,1005.17
2018-03-15T05:20:34.307Z,1005.14
2018-03-15T05:21:34.318Z,1005.21
2018-03-15T05:22:34.336Z,1005.14
2018-03-15T05:23:34.345Z,1005.11
2018-03-15T05:24:34.357Z,1005.19
2018-03-15T05:25:34.367Z,1005.20
2018-03-15T05:26:34.374Z,1005.17
2018-03-15T05:27:34.397Z,1005.15
2018-03-15T05:28:34.402Z,1005.13
2018-03-15T05:29:34.411Z,1005.15
2018-03-15T05:30:34.433Z,1005.13
2018-03-15T05:31:34.445Z,1005.14
2018-03-15T05:32:34.466Z,1005.13
2018-03-15T05:33:34.459Z,1005.11
2018-03-15T05:34:34.473Z,1005.07
2018-03-15T05:35:34.488Z,1005.13
2018-03-15T05:36:34.499Z,1005.12
2018-03-15T05:37:34.511Z,1005.09
2018-03-15T05:38:34.518Z,1005.09
2018-03-15T05:39:34.538Z,1005.07
2018-03-15T05:40:34.555Z,1005.09
2018-03-15T05:41:34.559Z,1005.09
2018-03-15T05:42:34.568Z,1005.12
2018-03-15T05:43:34.585Z,1005.13
2018-03-15T05:44:34.597Z,1005.04
2018-03-15T05:45:34.602Z,1005.11
2018-03-15T05:46:34.613Z,1005.07
2018-03-15T05:47:34.638Z,1005.08
2018-03-15T05:48:34.641Z,1005.07
2018-03-15T05:49:34.651Z,1005.11
2018-03-15T05:50:34.661Z,1005.12
2018-03-15T05:51:34.681Z,1005.13
2018-03-15T05:52:34.690Z,1005.11
2018-03-15T05:53:34.700Z,1005.16
2018-03-15T05:54:34.708Z,1005.16
2018-03-15T05:55:34.729Z,1005.19
2018-03-15T05:56:34.743Z,1005.06
2018-03-15T05:57:34.751Z,1005.15
2018-03-15T05:58:34.759Z,1005.14
2018-03-15T05:59:34.782Z,1005.18
2018-03-15T06:00:34.787Z,1005.11
2018-03-15T06:01:34.798Z,1005.16
2018-03-15T06:02:34.808Z,1005.11
2018-03-15T06:03:34.826Z,1005.17
2018-03-15T06:04:34.839Z,1005.14
2018-03-15T06:05:34.844Z,1005.16
2018-03-15T06:06:34.854Z,1005.12
2018-03-15T06:07:34.910Z,1005.12
2018-03-15T06:08:34.882Z,1005.14
2018-03-15T06:09:34.893Z,1005.15
2018-03-15T06:10:34.913Z,1005.16
2018-03-15T06:11:34.921Z,1005.18
2018-03-15T06:12:34.935Z,1005.14
2018-03-15T06:13:34.939Z,1005.14
2018-03-15T06:14:34.965Z,1005.19
2018-03-15T06:15:34.970Z,1005.13
2018-03-15T06:16:34.980Z,1005.19
2018-03-15T06:17:34.987Z,1005.24
2018-03-15T06:18:35.013Z,1005.14
2018-03-15T06:19:35.023Z,1005.22
2018-03-15T06:20:35.026Z,1005.20
2018-03-15T06:21:35.037Z,1005.23
2018-03-15T06:22:35.060Z,1005.27
2018-03-15T06:23:35.079Z,1005.24
2018-03-15T06:24:35.077Z,1005.31
2018-03-15T06:25:35.087Z,1005.26
2018-03-15T06:26:35.108Z,1005.28
2018-03-15T06:27:35.114Z,1005.27
2018-03-15T06:28:35.127Z,1005.25
2018-03-15T06:29:35.131Z,1005.25
2018-03-15T06:30:35.156Z,1005.24
2018-03-15T06:31:35.162Z,1005.26
2018-03-15T06:32:35.171Z,1005.23
2018-03-15T06:33:35.182Z,1005.24
2018-03-15T06:34:35.205Z,1005.22
2018-03-15T06:35:35.211Z,1005.28
2018-03-15T06:36:35.223Z,1005.29
2018-03-15T06:37:35.228Z,1005.31
2018-03-15T06:38:35.249Z,1005.31
2018-03-15T06:39:35.257Z,1005.33
2018-03-15T06:40:35.267Z,1005.34
2018-03-15T06:41:35.276Z,1005.35
2018-03-15T06:42:35.297Z,1005.34
2018-03-15T06:43:35.308Z,1005.36
2018-03-15T06:44:35.320Z,1005.35
2018-03-15T06:45:35.326Z,1005.35
2018-03-15T06:46:35.347Z,1005.41
2018-03-15T06:47:35.354Z,1005.37
2018-03-15T06:48:35.363Z,1005.38
2018-03-15T06:49:35.372Z,1005.34
2018-03-15T06:50:35.393Z,1005.38
2018-03-15T06:51:35.407Z,1005.35
2018-03-15T06:52:35.417Z,1005.51
2018-03-15T06:53:35.440Z,1005.39
2018-03-15T06:54:35.445Z,1005.41
2018-03-15T06:55:35.450Z,1005.42
2018-03-15T06:56:35.459Z,1005.46
2018-03-15T06:57:35.480Z,1005.47
2018-03-15T06:58:35.490Z,1005.50
2018-03-15T06:59:35.499Z,1005.51
2018-03-15T07:00:35.511Z,1005.44
2018-03-15T07:01:35.529Z,1005.51
2018-03-15T07:02:35.537Z,1005.56
2018-03-15T07:03:35.550Z,1005.53
2018-03-15T07:04:35.556Z,1005.52
2018-03-15T07:05:35.581Z,1005.52
2018-03-15T07:06:35.586Z,1005.56
2018-03-15T07:07:35.595Z,1005.52
2018-03-15T07:08:35.606Z,1005.53
2018-03-15T07:09:35.628Z,1005.50
2018-03-15T07:10:35.688Z,1005.48
2018-03-15T07:11:35.646Z,1005.52
2018-03-15T07:12:35.655Z,1005.48
2018-03-15T07:13:35.673Z,1005.50
2018-03-15T07:14:35.684Z,1005.45
2018-03-15T07:15:35.691Z,1005.40
2018-03-15T07:16:35.740Z,1005.46
2018-03-15T07:17:35.720Z,1005.45
2018-03-15T07:18:35.734Z,1005.44
2018-03-15T07:19:35.738Z,1005.49
2018-03-15T07:20:35.748Z,1005.52
2018-03-15T07:21:35.773Z,1005.47
2018-03-15T07:22:35.778Z,1005.49
2018-03-15T07:23:35.790Z,1005.55
2018-03-15T07:24:35.808Z,1005.51
2018-03-15T07:25:35.817Z,1005.44
2018-03-15T07:26:35.828Z,1005.49
2018-03-15T07:27:35.836Z,1005.49
2018-03-15T07:28:35.857Z,1005.50
2018-03-15T07:29:35.870Z,1005.49
2018-03-15T07:30:35.873Z,1005.47
2018-03-15T07:31:35.895Z,1005.58
2018-03-15T07:32:35.904Z,1005.48
2018-03-15T07:33:35.912Z,1005.47
2018-03-15T07:34:35.923Z,1005.47
2018-03-15T07:35:35.944Z,1005.46
2018-03-15T07:36:35.953Z,1005.47
2018-03-15T07:37:35.961Z,1005.43
2018-03-15T07:38:35.969Z,1005.50
2018-03-15T07:39:35.995Z,1005.49
2018-03-15T07:40:36.000Z,1005.52
2018-03-15T07:41:36.009Z,1005.59
2018-03-15T07:42:36.027Z,1005.55
2018-03-15T07:43:36.046Z,1005.51
2018-03-15T07:44:36.055Z,1005.61
2018-03-15T07:45:36.058Z,1005.60
2018-03-15T07:46:36.078Z,1005.56
2018-03-15T07:47:36.088Z,1005.60
2018-03-15T07:48:36.100Z,1005.65
2018-03-15T07:49:36.104Z,1005.63
2018-03-15T07:50:36.126Z,1005.60
2018-03-15T07:51:36.141Z,1005.62
2018-03-15T07:52:36.144Z,1005.61
2018-03-15T07:53:36.154Z,1005.60
2018-03-15T07:54:36.179Z,1005.57
2018-03-15T07:55:36.186Z,1005.56
2018-03-15T07:56:36.193Z,1005.49
2018-03-15T07:57:36.213Z,1005.57
2018-03-15T07:58:36.226Z,1005.56
2018-03-15T07:59:36.232Z,1005.50
2018-03-15T08:00:36.241Z,1005.51
2018-03-15T08:01:36.261Z,1005.53
2018-03-15T08:02:36.272Z,1005.51
2018-03-15T08:03:36.279Z,1005.50
2018-03-15T08:04:36.302Z,1005.52
2018-03-15T08:05:36.311Z,1005.48
2018-03-15T08:06:36.318Z,1005.47
2018-03-15T08:07:36.331Z,1005.52
2018-03-15T08:08:36.349Z,1005.54
2018-03-15T08:09:36.373Z,1005.50
2018-03-15T08:10:36.367Z,1005.46
2018-03-15T08:11:36.389Z,1005.45
2018-03-15T08:12:36.397Z,1005.49
2018-03-15T08:13:36.406Z,1005.48
2018-03-15T08:14:36.435Z,1005.56
2018-03-15T08:15:36.439Z,1005.47
2018-03-15T08:16:36.449Z,1005.58
2018-03-15T08:17:36.467Z,1005.51
2018-03-15T08:18:36.476Z,1005.49
2018-03-15T08:19:36.484Z,1005.44
2018-03-15T08:20:36.498Z,1005.36
2018-03-15T08:21:36.504Z,1005.42
2018-03-15T08:22:36.527Z,1005.40
2018-03-15T08:23:36.533Z,1005.45
2018-03-15T08:24:36.541Z,1005.40
2018-03-15T08:25:36.567Z,1005.37
2018-03-15T08:26:36.571Z,1005.37
2018-03-15T08:27:36.581Z,1005.33
2018-03-15T08:28:36.602Z,1005.34
2018-03-15T08:29:36.615Z,1005.28
2018-03-15T08:30:36.624Z,1005.29
2018-03-15T08:31:36.648Z,1005.31
2018-03-15T08:32:36.649Z,1005.27
2018-03-15T08:33:36.663Z,1005.25
2018-03-15T08:34:36.672Z,1005.30
2018-03-15T08:35:36.690Z,1005.24
2018-03-15T08:36:36.698Z,1005.26
2018-03-15T08:37:36.707Z,1005.25
2018-03-15T08:38:36.728Z,1005.29
2018-03-15T08:39:36.798Z,1005.27
2018-03-15T08:40:36.750Z,1005.33
2018-03-15T08:41:36.768Z,1005.26
2018-03-15T08:42:36.781Z,1005.32
2018-03-15T08:43:36.790Z,1005.19
2018-03-15T08:44:36.807Z,1005.20
2018-03-15T08:45:36.816Z,1005.23
2018-03-15T08:46:36.829Z,1005.25
2018-03-15T08:47:36.846Z,1005.24
2018-03-15T08:48:36.858Z,1005.24
2018-03-15T08:49:36.864Z,1005.20
2018-03-15T08:50:36.886Z,1005.19
2018-03-15T08:51:36.895Z,1005.22
2018-03-15T08:52:36.907Z,1005.23
2018-03-15T08:53:36.940Z,1005.20
2018-03-15T08:54:36.934Z,1005.26
2018-03-15T08:55:36.954Z,1005.20
2018-03-15T08:56:36.970Z,1005.26
2018-03-15T08:57:36.972Z,1005.13
2018-03-15T08:58:36.993Z,1005.24
2018-03-15T08:59:37.006Z,1005.17
2018-03-15T09:00:37.011Z,1005.15
2018-03-15T09:01:37.033Z,1005.16
2018-03-15T09:02:37.042Z,1005.18
2018-03-15T09:03:37.054Z,1005.14
2018-03-15T09:04:37.316Z,1005.13
2018-03-15T09:05:37.082Z,1005.19
2018-03-15T09:06:37.103Z,1005.13
2018-03-15T09:07:37.118Z,1005.12
2018-03-15T09:08:37.306Z,1005.09
2018-03-15T09:09:37.145Z,1005.12
2018-03-15T09:10:37.150Z,1005.18
2018-03-15T09:11:37.163Z,1005.16
2018-03-15T09:12:37.180Z,1005.21
2018-03-15T09:13:37.190Z,1005.08
2018-03-15T09:14:37.214Z,1005.11
2018-03-15T09:15:37.224Z,1005.07
2018-03-15T09:16:37.233Z,1005.07
2018-03-15T09:17:37.250Z,1005.08
2018-03-15T09:18:37.261Z,1005.04
2018-03-15T09:19:37.280Z,1005.07
2018-03-15T09:20:37.293Z,1005.02
2018-03-15T09:21:37.341Z,1005.04
2018-03-15T09:22:37.321Z,1004.96
2018-03-15T09:23:37.334Z,1004.99
2018-03-15T09:24:37.353Z,1005.04
2018-03-15T09:25:37.359Z,1005.05
2018-03-15T09:26:37.388Z,1005.02
2018-03-15T09:27:37.395Z,1005.01
2018-03-15T09:28:37.429Z,1004.98
2018-03-15T09:29:37.421Z,1004.92
2018-03-15T09:30:37.431Z,1004.93
2018-03-15T09:31:37.454Z,1004.89
2018-03-15T09:32:37.459Z,1004.96
2018-03-15T09:33:37.480Z,1004.86
2018-03-15T09:34:37.499Z,1004.91
2018-03-15T09:35:37.499Z,1004.83
2018-03-15T09:36:37.523Z,1004.82
2018-03-15T09:37:37.529Z,1004.83
2018-03-15T09:38:37.549Z,1004.84
2018-03-15T09:39:37.559Z,1004.86
2018-03-15T09:40:37.635Z,1004.84
2018-03-15T09:41:37.591Z,1004.83
2018-03-15T09:42:37.598Z,1004.75
2018-03-15T09:43:37.619Z,1004.79
2018-03-15T09:44:37.629Z,1004.81
2018-03-15T09:45:37.649Z,1004.79
2018-03-15T09:46:37.659Z,1004.76
2018-03-15T09:47:37.680Z,1004.76
2018-03-15T09:48:37.692Z,1004.77
2018-03-15T09:49:37.698Z,1004.72
2018-03-15T09:50:37.718Z,1004.72
2018-03-15T09:51:37.732Z,1004.66
2018-03-15T09:52:37.749Z,1004.76
2018-03-15T09:53:37.761Z,1004.70
2018-03-15T09:54:37.781Z,1004.62
2018-03-15T09:55:37.790Z,1004.64
2018-03-15T09:56:37.800Z,1004.62
2018-03-15T09:57:37.817Z,1004.63
2018-03-15T09:58:37.830Z,1004.61
2018-03-15T09:59:37.848Z,1004.60
2018-03-15T10:00:37.858Z,1004.62
2018-03-15T10:01:37.919Z,1004.60
2018-03-15T10:02:37.891Z,1004.55
2018-03-15T10:03:37.908Z,1004.53
2018-03-15T10:04:37.917Z,1004.56
2018-03-15T10:05:37.939Z,1004.58
2018-03-15T10:06:37.951Z,1004.60
2018-03-15T10:07:37.959Z,1004.52
2018-03-15T10:08:37.977Z,1004.50
2018-03-15T10:09:37.987Z,1004.52
2018-03-15T10:10:38.019Z,1004.50
2018-03-15T10:11:38.016Z,1004.53
2018-03-15T10:12:38.038Z,1004.53
2018-03-15T10:13:38.052Z,1004.53
2018-03-15T10:14:38.071Z,1004.47
2018-03-15T10:15:38.082Z,1004.46
2018-03-15T10:16:38.099Z,1004.48
2018-03-15T10:17:38.113Z,1004.53
2018-03-15T10:18:38.133Z,1004.53
2018-03-15T10:19:38.141Z,1004.54
2018-03-15T10:20:38.163Z,1004.54
2018-03-15T10:21:38.171Z,1004.53
2018-03-15T10:22:38.179Z,1004.56
2018-03-15T10:23:38.202Z,1004.48
2018-03-15T10:24:38.212Z,1004.56
2018-03-15T10:25:38.233Z,1004.51
2018-03-15T10:26:38.238Z,1004.55
2018-03-15T10:27:38.260Z,1004.57
2018-03-15T10:28:38.272Z,1004.53
2018-03-15T10:29:38.291Z,1004.55
2018-03-15T10:30:38.299Z,1004.51
2018-03-15T10:31:38.320Z,1004.53
2018-03-15T10:32:38.329Z,1004.49
2018-03-15T10:33:38.352Z,1004.46
2018-03-15T10:34:38.362Z,1004.44
2018-03-15T10:35:38.381Z,1004.46
2018-03-15T10:36:38.390Z,1004.44
2018-03-15T10:37:38.410Z,1004.36
2018-03-15T10:38:38.419Z,1004.42
2018-03-15T10:39:38.457Z,1004.39
2018-03-15T10:40:38.451Z,1004.36
2018-03-15T10:41:38.471Z,1004.36
2018-03-15T10:42:38.480Z,1004.38
2018-03-15T10:43:38.503Z,1004.37
2018-03-15T10:44:38.515Z,1004.35
2018-03-15T10:45:38.537Z,1004.31
2018-03-15T10:46:38.548Z,1004.28
2018-03-15T10:47:38.562Z,1004.29
2018-03-15T10:48:38.573Z,1004.27
2018-03-15T10:49:38.593Z,1004.31
2018-03-15T10:50:38.613Z,1004.30
2018-03-15T10:51:38.624Z,1004.25
2018-03-15T10:52:38.647Z,1004.26
2018-03-15T10:53:38.654Z,1004.34
2018-03-15T10:54:38.674Z,1004.24
2018-03-15T10:55:38.683Z,1004.20
2018-03-15T10:56:38.705Z,1004.24
2018-03-15T10:57:38.715Z,1004.25
2018-03-15T10:58:38.741Z,1004.18
2018-03-15T10:59:38.750Z,1004.24
2018-03-15T11:00:38.768Z,1004.18
2018-03-15T11:01:38.774Z,1004.14
2018-03-15T11:02:38.797Z,1004.18
2018-03-15T11:03:38.807Z,1004.26
2018-03-15T11:04:38.825Z,1004.17
2018-03-15T11:05:38.836Z,1004.26
2018-03-15T11:06:38.856Z,1004.26
2018-03-15T11:07:38.877Z,1004.31
2018-03-15T11:08:38.890Z,1004.32
2018-03-15T11:09:38.911Z,1004.15
2018-03-15T11:10:38.921Z,1004.23
2018-03-15T11:11:38.938Z,1004.22
2018-03-15T11:12:38.946Z,1004.16
2018-03-15T11:13:38.968Z,1004.18
2018-03-15T11:14:38.978Z,1004.20
2018-03-15T11:15:38.999Z,1004.17
2018-03-15T11:16:39.011Z,1004.12
2018-03-15T11:17:39.030Z,1004.12
2018-03-15T11:18:39.054Z,1004.18
2018-03-15T11:19:39.060Z,1004.18
2018-03-15T11:20:39.088Z,1004.16
2018-03-15T11:21:39.092Z,1004.16
2018-03-15T11:22:39.123Z,1004.14
2018-03-15T11:23:39.124Z,1004.13
2018-03-15T11:24:39.141Z,1004.19
2018-03-15T11:25:39.149Z,1004.14
2018-03-15T11:26:39.175Z,1004.18
2018-03-15T11:27:39.184Z,1004.09
2018-03-15T11:28:39.208Z,1004.10
2018-03-15T11:29:39.209Z,1004.11
2018-03-15T11:30:39.235Z,1004.07
2018-03-15T11:31:39.246Z,1004.11
2018-03-15T11:32:39.262Z,1004.05
2018-03-15T11:33:39.271Z,1004.06
2018-03-15T11:34:39.293Z,1004.06
2018-03-15T11:35:39.308Z,1004.09
2018-03-15T11:36:39.327Z,1004.08
2018-03-15T11:37:39.337Z,1004.13
2018-03-15T11:38:39.366Z,1004.10
2018-03-15T11:39:39.378Z,1004.07
2018-03-15T11:40:39.384Z,1004.05
2018-03-15T11:41:39.405Z,1004.12
2018-03-15T11:42:39.413Z,1004.07
2018-03-15T11:43:39.435Z,1004.04
2018-03-15T11:44:39.447Z,1004.01
2018-03-15T11:45:39.470Z,1004.03
2018-03-15T11:46:39.478Z,1004.07
2018-03-15T11:47:39.494Z,1004.05
2018-03-15T11:48:39.507Z,1003.99
2018-03-15T11:49:39.527Z,1004.00
2018-03-15T11:50:39.588Z,1003.96
2018-03-15T11:51:39.558Z,1003.92
2018-03-15T11:52:39.568Z,1003.93
2018-03-15T11:53:39.588Z,1003.93
2018-03-15T11:54:39.599Z,1003.95
2018-03-15T11:55:39.617Z,1003.97
2018-03-15T11:56:39.626Z,1003.89
2018-03-15T11:57:39.648Z,1003.93
2018-03-15T11:58:39.656Z,1003.90
2018-03-15T11:59:39.693Z,1003.84
2018-03-15T12:00:39.754Z,1003.80
2018-03-15T12:01:39.718Z,1003.84
2018-03-15T12:02:39.716Z,1003.79
2018-03-15T12:03:39.738Z,1003.78
2018-03-15T12:04:39.759Z,1003.80
2018-03-15T12:05:39.767Z,1003.74